< < Back
Terminal Aerodrome Forecast


Current Version              Previous Versions:   1  2  3  4  5  6  7  8  9  

Terminal Aerodrome Forecast

634
FTUS42 KFFC 031120
TAFCSG
TAF
KCSG 031120Z 0312/0412 VRB03KT P6SM SCT050 BKN180
     FM031400 30003KT P6SM SCT035 BKN150
     FM031700 30006KT P6SM VCSH SCT045 BKN150
     FM040000 VRB03KT P6SM SCT060 SCT150=

Latest METAR

832
SAUS70 KWBC 040654
MTRCSG
METAR KCSG 040651Z AUTO 00000KT 10SM CLR 23/22 A2995 RMK AO2 SLP136
T02330217


USA.gov is the U.S. government's official web portal to all federal, state and local government web resources and services.